Time;durP1;ratioP1;P1;durP2;ratioP2;P2;SDS_P1;SDS_P2;PMS_P1;PMS_P2;Temp;Humidity;BMP_temperature;BMP_pressure;BME280_temperature;BME280_humidity;BME280_pressure;Samples;Min_cycle;Max_cycle;Signal;HPM_P1;HPM_P2
2022/09/03 00:00:04;;;;;;;0.3;0.3;;;;;;;18.8;74.0;100830;;;;
2022/09/03 00:01:02;;;;;;;0.3;0.3;;;;;;;18.8;72.7;100830;;;;
2022/09/03 00:02:05;;;;;;;0.3;0.3;;;;;;;18.8;72.7;100830;;;;
2022/09/03 00:03:05;;;;;;;0.3;0.3;;;;;;;18.8;72.9;100830;;;;
2022/09/03 00:04:05;;;;;;;0.3;0.3;;;;;;;18.8;72.9;100830;;;;
2022/09/03 00:05:04;;;;;;;0.3;0.3;;;;;;;18.8;73.4;100830;;;;
2022/09/03 00:06:10;;;;;;;0.3;0.3;;;;;;;18.8;73.4;100830;;;;
2022/09/03 00:07:01;;;;;;;0.3;0.3;;;;;;;18.8;72.3;100830;;;;
2022/09/03 00:08:05;;;;;;;0.3;0.3;;;;;;;18.8;72.3;100830;;;;
2022/09/03 00:09:07;;;;;;;0.3;0.3;;;;;;;18.8;72.5;100830;;;;
2022/09/03 00:10:03;;;;;;;0.3;0.3;;;;;;;18.8;72.5;100830;;;;
2022/09/03 00:11:03;;;;;;;0.3;0.3;;;;;;;18.7;73.6;100830;;;;
2022/09/03 00:12:08;;;;;;;0.3;0.3;;;;;;;18.7;73.6;100830;;;;
2022/09/03 00:13:02;;;;;;;0.2;0.2;;;;;;;18.6;73.9;100830;;;;
2022/09/03 00:14:04;;;;;;;0.2;0.2;;;;;;;18.6;73.9;100830;;;;
2022/09/03 00:15:03;;;;;;;0.2;0.2;;;;;;;18.6;74.7;100830;;;;
2022/09/03 00:16:02;;;;;;;0.2;0.2;;;;;;;18.6;74.7;100830;;;;
2022/09/03 00:17:03;;;;;;;0.2;0.2;;;;;;;18.6;74.4;100830;;;;
2022/09/03 00:18:03;;;;;;;0.2;0.2;;;;;;;18.6;74.4;100830;;;;
2022/09/03 00:19:02;;;;;;;0.2;0.2;;;;;;;18.6;76.0;100830;;;;
2022/09/03 00:20:10;;;;;;;0.2;0.2;;;;;;;18.6;76.0;100830;;;;
2022/09/03 00:21:07;;;;;;;0.2;0.2;;;;;;;18.4;76.4;100830;;;;
2022/09/03 00:22:10;;;;;;;0.2;0.2;;;;;;;18.4;76.4;100830;;;;
2022/09/03 00:23:02;;;;;;;0.2;0.2;;;;;;;18.4;75.7;100830;;;;
2022/09/03 00:24:02;;;;;;;0.2;0.2;;;;;;;18.4;75.7;100830;;;;
2022/09/03 00:25:02;;;;;;;0.2;0.2;;;;;;;18.5;76.1;100830;;;;
2022/09/03 00:26:10;;;;;;;0.2;0.2;;;;;;;18.5;76.1;100830;;;;
2022/09/03 00:27:02;;;;;;;0.2;0.2;;;;;;;18.5;76.0;100830;;;;
2022/09/03 00:28:01;;;;;;;0.2;0.2;;;;;;;18.5;76.0;100830;;;;
2022/09/03 00:29:00;;;;;;;0.2;0.2;;;;;;;18.5;75.4;100830;;;;
2022/09/03 00:30:02;;;;;;;0.2;0.2;;;;;;;18.5;75.4;100830;;;;
2022/09/03 00:31:11;;;;;;;0.2;0.2;;;;;;;18.4;76.5;100830;;;;
2022/09/03 00:32:05;;;;;;;0.2;0.2;;;;;;;18.4;76.5;100830;;;;
2022/09/03 00:33:05;;;;;;;0.3;0.3;;;;;;;18.4;76.3;100830;;;;
2022/09/03 00:34:03;;;;;;;0.3;0.3;;;;;;;18.4;76.3;100830;;;;
2022/09/03 00:35:02;;;;;;;0.3;0.3;;;;;;;18.5;76.6;100830;;;;
2022/09/03 00:36:01;;;;;;;0.3;0.3;;;;;;;18.5;76.6;100830;;;;
2022/09/03 00:37:00;;;;;;;0.3;0.3;;;;;;;18.4;76.8;100830;;;;
2022/09/03 00:38:00;;;;;;;0.3;0.3;;;;;;;18.4;76.8;100830;;;;
2022/09/03 00:39:00;;;;;;;0.3;0.3;;;;;;;18.3;77.1;100830;;;;
2022/09/03 00:40:02;;;;;;;0.3;0.3;;;;;;;18.3;77.1;100830;;;;
2022/09/03 00:41:05;;;;;;;0.3;0.3;;;;;;;18.3;76.8;100830;;;;
2022/09/03 00:42:10;;;;;;;0.3;0.3;;;;;;;18.3;76.8;100830;;;;
2022/09/03 00:43:07;;;;;;;0.3;0.3;;;;;;;18.2;77.4;100830;;;;
2022/09/03 00:44:12;;;;;;;0.3;0.3;;;;;;;18.2;77.4;100830;;;;
2022/09/03 00:45:07;;;;;;;0.3;0.3;;;;;;;18.2;77.0;100830;;;;
2022/09/03 00:46:10;;;;;;;0.3;0.3;;;;;;;18.2;77.0;100830;;;;
2022/09/03 00:47:06;;;;;;;0.3;0.3;;;;;;;18.3;77.4;100830;;;;
2022/09/03 00:48:01;;;;;;;0.3;0.3;;;;;;;18.3;77.4;100830;;;;
2022/09/03 00:49:00;;;;;;;0.3;0.3;;;;;;;18.2;77.5;100830;;;;
2022/09/03 00:50:10;;;;;;;0.3;0.3;;;;;;;18.2;77.5;100830;;;;
2022/09/03 00:51:00;;;;;;;0.3;0.3;;;;;;;18.3;76.8;100830;;;;
2022/09/03 00:52:00;;;;;;;0.3;0.3;;;;;;;18.3;76.8;100830;;;;
2022/09/03 00:53:10;;;;;;;0.6;0.6;;;;;;;18.2;77.8;100830;;;;
2022/09/03 00:54:10;;;;;;;0.6;0.6;;;;;;;18.2;77.8;100830;;;;
2022/09/03 00:55:10;;;;;;;0.6;0.6;;;;;;;18.3;77.1;100830;;;;
2022/09/03 00:56:07;;;;;;;0.6;0.6;;;;;;;18.3;77.1;100830;;;;
2022/09/03 00:57:10;;;;;;;0.6;0.6;;;;;;;18.2;78.2;100830;;;;
2022/09/03 00:58:10;;;;;;;0.6;0.6;;;;;;;18.2;78.2;100830;;;;
2022/09/03 00:59:10;;;;;;;0.6;0.6;;;;;;;18.0;79.5;100830;;;;
2022/09/03 01:00:00;;;;;;;0.6;0.6;;;;;;;18.0;79.5;100830;;;;
2022/09/03 01:01:05;;;;;;;0.6;0.6;;;;;;;18.0;79.2;100830;;;;
2022/09/03 01:02:00;;;;;;;0.6;0.6;;;;;;;18.0;79.2;100830;;;;
2022/09/03 01:03:09;;;;;;;0.6;0.6;;;;;;;18.2;78.0;100830;;;;
2022/09/03 01:04:02;;;;;;;0.6;0.6;;;;;;;18.2;78.0;100830;;;;
2022/09/03 01:05:10;;;;;;;0.6;0.6;;;;;;;18.2;77.6;100830;;;;
2022/09/03 01:06:10;;;;;;;0.6;0.6;;;;;;;18.2;77.6;100830;;;;
2022/09/03 01:07:08;;;;;;;0.6;0.6;;;;;;;18.1;79.3;100830;;;;
2022/09/03 01:08:10;;;;;;;0.6;0.6;;;;;;;18.1;79.3;100830;;;;
2022/09/03 01:09:08;;;;;;;0.6;0.6;;;;;;;18.1;78.1;100830;;;;
2022/09/03 01:10:00;;;;;;;0.6;0.6;;;;;;;18.1;78.1;100830;;;;
2022/09/03 01:11:09;;;;;;;0.6;0.6;;;;;;;18.1;79.8;100830;;;;
2022/09/03 01:12:12;;;;;;;0.6;0.6;;;;;;;18.1;79.8;100830;;;;
2022/09/03 01:13:07;;;;;;;0.2;0.2;;;;;;;18.1;78.6;100820;;;;
2022/09/03 01:14:07;;;;;;;0.2;0.2;;;;;;;18.1;78.6;100820;;;;
2022/09/03 01:15:00;;;;;;;0.2;0.2;;;;;;;18.0;80.2;100820;;;;
2022/09/03 01:16:10;;;;;;;0.2;0.2;;;;;;;18.0;80.2;100820;;;;
2022/09/03 01:17:10;;;;;;;0.2;0.2;;;;;;;17.9;82.2;100820;;;;
2022/09/03 01:18:07;;;;;;;0.2;0.2;;;;;;;17.9;82.2;100820;;;;
2022/09/03 01:19:03;;;;;;;0.2;0.2;;;;;;;17.9;80.8;100830;;;;
2022/09/03 01:20:07;;;;;;;0.2;0.2;;;;;;;17.9;80.8;100830;;;;
2022/09/03 01:21:10;;;;;;;0.2;0.2;;;;;;;17.9;80.2;100830;;;;
2022/09/03 01:22:10;;;;;;;0.2;0.2;;;;;;;17.9;80.2;100830;;;;
2022/09/03 01:23:00;;;;;;;0.2;0.2;;;;;;;18.0;80.8;100830;;;;
2022/09/03 01:24:11;;;;;;;0.2;0.2;;;;;;;18.0;80.8;100830;;;;
2022/09/03 01:25:10;;;;;;;0.2;0.2;;;;;;;17.9;81.2;100820;;;;
2022/09/03 01:26:10;;;;;;;0.2;0.2;;;;;;;17.9;81.2;100820;;;;
2022/09/03 01:27:09;;;;;;;0.2;0.2;;;;;;;17.8;81.9;100830;;;;
2022/09/03 01:28:12;;;;;;;0.2;0.2;;;;;;;17.8;81.9;100830;;;;
2022/09/03 01:29:09;;;;;;;0.2;0.2;;;;;;;17.9;81.3;100830;;;;
2022/09/03 01:30:03;;;;;;;0.2;0.2;;;;;;;17.9;81.3;100830;;;;
2022/09/03 01:31:01;;;;;;;0.2;0.2;;;;;;;17.8;81.8;100830;;;;
2022/09/03 01:32:05;;;;;;;0.2;0.2;;;;;;;17.8;81.8;100830;;;;
2022/09/03 01:33:01;;;;;;;0.3;0.3;;;;;;;17.8;82.5;100830;;;;
2022/09/03 01:34:00;;;;;;;0.3;0.3;;;;;;;17.8;82.5;100830;;;;
2022/09/03 01:35:10;;;;;;;0.3;0.3;;;;;;;17.9;81.1;100830;;;;
2022/09/03 01:36:07;;;;;;;0.3;0.3;;;;;;;17.9;81.1;100830;;;;
2022/09/03 01:37:09;;;;;;;0.3;0.3;;;;;;;17.9;81.6;100830;;;;
2022/09/03 01:38:00;;;;;;;0.3;0.3;;;;;;;17.9;81.6;100830;;;;
2022/09/03 01:39:02;;;;;;;0.3;0.3;;;;;;;17.9;80.9;100830;;;;
2022/09/03 01:40:10;;;;;;;0.3;0.3;;;;;;;17.9;80.9;100830;;;;
2022/09/03 01:42:14;;;;;;;0.3;0.3;;;;;;;17.9;80.8;100830;;;;
2022/09/03 01:43:00;;;;;;;0.3;0.3;;;;;;;17.9;80.3;100840;;;;
2022/09/03 01:44:10;;;;;;;0.3;0.3;;;;;;;17.9;80.3;100840;;;;
2022/09/03 01:45:11;;;;;;;0.3;0.3;;;;;;;17.9;80.9;100830;;;;
2022/09/03 01:46:00;;;;;;;0.3;0.3;;;;;;;17.9;80.9;100830;;;;
2022/09/03 01:47:09;;;;;;;0.3;0.3;;;;;;;17.8;81.6;100830;;;;
2022/09/03 01:48:07;;;;;;;0.3;0.3;;;;;;;17.8;81.6;100830;;;;
2022/09/03 01:49:05;;;;;;;0.3;0.3;;;;;;;17.6;83.9;100830;;;;
2022/09/03 01:50:10;;;;;;;0.3;0.3;;;;;;;17.6;83.9;100830;;;;
2022/09/03 01:51:01;;;;;;;0.3;0.3;;;;;;;17.7;82.5;100830;;;;
2022/09/03 01:52:04;;;;;;;0.3;0.3;;;;;;;17.7;82.5;100830;;;;
2022/09/03 01:53:07;;;;;;;0.4;0.4;;;;;;;17.7;82.0;100830;;;;
2022/09/03 01:54:20;;;;;;;0.4;0.4;;;;;;;17.7;82.0;100830;;;;
2022/09/03 01:55:01;;;;;;;0.4;0.4;;;;;;;17.8;81.0;100830;;;;
2022/09/03 01:56:00;;;;;;;0.4;0.4;;;;;;;17.8;81.0;100830;;;;
2022/09/03 01:57:21;;;;;;;0.4;0.4;;;;;;;17.8;81.5;100820;;;;
2022/09/03 01:58:00;;;;;;;0.4;0.4;;;;;;;17.8;81.5;100820;;;;
2022/09/03 01:59:05;;;;;;;0.4;0.4;;;;;;;17.7;81.7;100830;;;;
2022/09/03 02:00:12;;;;;;;0.4;0.4;;;;;;;17.7;81.7;100830;;;;
2022/09/03 02:01:04;;;;;;;0.4;0.4;;;;;;;17.6;83.0;100830;;;;
2022/09/03 02:02:05;;;;;;;0.4;0.4;;;;;;;17.6;83.0;100830;;;;
2022/09/03 02:03:04;;;;;;;0.4;0.4;;;;;;;17.6;83.2;100830;;;;
2022/09/03 02:04:00;;;;;;;0.4;0.4;;;;;;;17.6;83.2;100830;;;;
2022/09/03 02:05:00;;;;;;;0.4;0.4;;;;;;;17.6;83.0;100830;;;;
2022/09/03 02:06:00;;;;;;;0.4;0.4;;;;;;;17.6;83.0;100830;;;;
2022/09/03 02:07:00;;;;;;;0.4;0.4;;;;;;;17.6;83.5;100830;;;;
2022/09/03 02:08:01;;;;;;;0.4;0.4;;;;;;;17.6;83.5;100830;;;;
2022/09/03 02:09:00;;;;;;;0.4;0.4;;;;;;;17.5;83.9;100820;;;;
2022/09/03 02:10:00;;;;;;;0.4;0.4;;;;;;;17.5;83.9;100820;;;;
2022/09/03 02:11:01;;;;;;;0.4;0.4;;;;;;;17.3;84.9;100820;;;;
2022/09/03 02:12:05;;;;;;;0.4;0.4;;;;;;;17.3;84.9;100820;;;;
2022/09/03 02:13:03;;;;;;;0.4;0.4;;;;;;;17.5;83.5;100830;;;;
2022/09/03 02:14:00;;;;;;;0.4;0.4;;;;;;;17.5;83.5;100830;;;;
2022/09/03 02:15:02;;;;;;;0.4;0.4;;;;;;;17.4;83.9;100820;;;;
2022/09/03 02:16:05;;;;;;;0.4;0.4;;;;;;;17.4;83.9;100820;;;;
2022/09/03 02:17:00;;;;;;;0.4;0.4;;;;;;;17.4;84.4;100820;;;;
2022/09/03 02:18:02;;;;;;;0.4;0.4;;;;;;;17.4;84.4;100820;;;;
2022/09/03 02:19:02;;;;;;;0.4;0.4;;;;;;;17.4;83.2;100820;;;;
2022/09/03 02:20:03;;;;;;;0.4;0.4;;;;;;;17.4;83.2;100820;;;;
2022/09/03 02:21:00;;;;;;;0.4;0.4;;;;;;;17.4;84.7;100820;;;;
2022/09/03 02:22:00;;;;;;;0.4;0.4;;;;;;;17.4;84.7;100820;;;;
2022/09/03 02:23:01;;;;;;;0.4;0.4;;;;;;;17.4;84.1;100820;;;;
2022/09/03 02:24:02;;;;;;;0.4;0.4;;;;;;;17.4;84.1;100820;;;;
2022/09/03 02:25:00;;;;;;;0.4;0.4;;;;;;;17.5;83.4;100820;;;;
2022/09/03 02:26:01;;;;;;;0.4;0.4;;;;;;;17.5;83.4;100820;;;;
2022/09/03 02:27:01;;;;;;;0.4;0.4;;;;;;;17.5;82.4;100820;;;;
2022/09/03 02:28:00;;;;;;;0.4;0.4;;;;;;;17.5;82.4;100820;;;;
2022/09/03 02:29:00;;;;;;;0.4;0.4;;;;;;;17.4;84.6;100820;;;;
2022/09/03 02:30:00;;;;;;;0.4;0.4;;;;;;;17.4;84.6;100820;;;;
2022/09/03 02:31:00;;;;;;;0.4;0.4;;;;;;;17.3;84.7;100820;;;;
2022/09/03 02:32:00;;;;;;;0.4;0.4;;;;;;;17.3;84.7;100820;;;;
2022/09/03 02:33:00;;;;;;;0.9;0.9;;;;;;;17.3;84.0;100820;;;;
2022/09/03 02:34:00;;;;;;;0.9;0.9;;;;;;;17.3;84.0;100820;;;;
2022/09/03 02:35:00;;;;;;;0.9;0.9;;;;;;;17.3;84.8;100810;;;;
2022/09/03 02:36:00;;;;;;;0.9;0.9;;;;;;;17.3;84.8;100810;;;;
2022/09/03 02:37:10;;;;;;;0.9;0.9;;;;;;;17.3;84.6;100820;;;;
2022/09/03 02:38:10;;;;;;;0.9;0.9;;;;;;;17.3;84.6;100820;;;;
2022/09/03 02:39:00;;;;;;;0.9;0.9;;;;;;;17.4;83.9;100820;;;;
2022/09/03 02:40:00;;;;;;;0.9;0.9;;;;;;;17.4;83.9;100820;;;;
2022/09/03 02:41:00;;;;;;;0.9;0.9;;;;;;;17.4;84.0;100820;;;;
2022/09/03 02:42:00;;;;;;;0.9;0.9;;;;;;;17.4;84.0;100820;;;;
2022/09/03 02:43:01;;;;;;;0.9;0.9;;;;;;;17.2;85.3;100820;;;;
2022/09/03 02:44:10;;;;;;;0.9;0.9;;;;;;;17.2;85.3;100820;;;;
2022/09/03 02:45:06;;;;;;;0.9;0.9;;;;;;;17.2;86.2;100820;;;;
2022/09/03 02:46:03;;;;;;;0.9;0.9;;;;;;;17.2;86.2;100820;;;;
2022/09/03 02:47:01;;;;;;;0.9;0.9;;;;;;;17.2;85.7;100820;;;;
2022/09/03 02:48:00;;;;;;;0.9;0.9;;;;;;;17.2;85.7;100820;;;;
2022/09/03 02:49:00;;;;;;;0.9;0.9;;;;;;;17.3;85.5;100820;;;;
2022/09/03 02:50:00;;;;;;;0.9;0.9;;;;;;;17.3;85.5;100820;;;;
2022/09/03 02:51:00;;;;;;;0.9;0.9;;;;;;;17.2;86.2;100820;;;;
2022/09/03 02:52:05;;;;;;;0.9;0.9;;;;;;;17.2;86.2;100820;;;;
2022/09/03 02:53:00;;;;;;;0.3;0.3;;;;;;;17.1;86.0;100820;;;;
2022/09/03 02:54:00;;;;;;;0.3;0.3;;;;;;;17.1;86.0;100820;;;;
2022/09/03 02:55:00;;;;;;;0.3;0.3;;;;;;;17.3;85.8;100820;;;;
2022/09/03 02:56:00;;;;;;;0.3;0.3;;;;;;;17.3;85.8;100820;;;;
2022/09/03 02:57:00;;;;;;;0.3;0.3;;;;;;;17.0;87.4;100820;;;;
2022/09/03 02:58:00;;;;;;;0.3;0.3;;;;;;;17.0;87.4;100820;;;;
2022/09/03 02:59:00;;;;;;;0.3;0.3;;;;;;;17.1;85.9;100820;;;;
2022/09/03 03:00:00;;;;;;;0.3;0.3;;;;;;;17.1;85.9;100820;;;;
2022/09/03 03:01:00;;;;;;;0.3;0.3;;;;;;;17.1;87.0;100820;;;;
2022/09/03 03:02:01;;;;;;;0.3;0.3;;;;;;;17.1;87.0;100820;;;;
2022/09/03 03:03:00;;;;;;;0.3;0.3;;;;;;;17.0;87.0;100810;;;;
2022/09/03 03:04:00;;;;;;;0.3;0.3;;;;;;;17.0;87.0;100810;;;;
2022/09/03 03:05:00;;;;;;;0.3;0.3;;;;;;;17.2;86.0;100810;;;;
2022/09/03 03:06:01;;;;;;;0.3;0.3;;;;;;;17.2;86.0;100810;;;;
2022/09/03 03:07:00;;;;;;;0.3;0.3;;;;;;;17.2;85.5;100810;;;;
2022/09/03 03:08:00;;;;;;;0.3;0.3;;;;;;;17.2;85.5;100810;;;;
2022/09/03 03:09:00;;;;;;;0.3;0.3;;;;;;;17.1;86.8;100810;;;;
2022/09/03 03:10:00;;;;;;;0.3;0.3;;;;;;;17.1;86.8;100810;;;;
2022/09/03 03:11:00;;;;;;;0.3;0.3;;;;;;;17.2;85.9;100810;;;;
2022/09/03 03:12:00;;;;;;;0.3;0.3;;;;;;;17.2;85.9;100810;;;;
2022/09/03 03:13:00;;;;;;;0.3;0.3;;;;;;;17.2;85.0;100810;;;;
2022/09/03 03:14:00;;;;;;;0.3;0.3;;;;;;;17.2;85.0;100810;;;;
2022/09/03 03:15:00;;;;;;;0.3;0.3;;;;;;;17.2;85.9;100810;;;;
2022/09/03 03:16:02;;;;;;;0.3;0.3;;;;;;;17.2;85.9;100810;;;;
2022/09/03 03:17:00;;;;;;;0.3;0.3;;;;;;;17.1;86.5;100820;;;;
2022/09/03 03:18:00;;;;;;;0.3;0.3;;;;;;;17.1;86.5;100820;;;;
2022/09/03 03:19:00;;;;;;;0.3;0.3;;;;;;;17.1;86.2;100820;;;;
2022/09/03 03:20:00;;;;;;;0.3;0.3;;;;;;;17.1;86.2;100820;;;;
2022/09/03 03:21:08;;;;;;;0.3;0.3;;;;;;;17.0;87.5;100820;;;;
2022/09/03 03:22:00;;;;;;;0.3;0.3;;;;;;;17.0;87.5;100820;;;;
2022/09/03 03:23:03;;;;;;;0.3;0.3;;;;;;;17.1;85.2;100820;;;;
2022/09/03 03:24:00;;;;;;;0.3;0.3;;;;;;;17.1;85.2;100820;;;;
2022/09/03 03:25:00;;;;;;;0.3;0.3;;;;;;;17.1;86.9;100820;;;;
2022/09/03 03:26:01;;;;;;;0.3;0.3;;;;;;;17.1;86.9;100820;;;;
2022/09/03 03:27:00;;;;;;;0.3;0.3;;;;;;;16.9;87.0;100820;;;;
2022/09/03 03:28:00;;;;;;;0.3;0.3;;;;;;;16.9;87.0;100820;;;;
2022/09/03 03:29:03;;;;;;;0.3;0.3;;;;;;;17.0;86.2;100820;;;;
2022/09/03 03:30:00;;;;;;;0.3;0.3;;;;;;;17.0;86.2;100820;;;;
2022/09/03 03:31:08;;;;;;;0.3;0.3;;;;;;;17.0;86.9;100820;;;;
2022/09/03 03:32:00;;;;;;;0.3;0.3;;;;;;;17.0;86.9;100820;;;;
2022/09/03 03:33:00;;;;;;;0.6;0.6;;;;;;;17.0;86.7;100810;;;;
2022/09/03 03:34:02;;;;;;;0.6;0.6;;;;;;;17.0;86.7;100810;;;;
2022/09/03 03:35:00;;;;;;;0.6;0.6;;;;;;;16.8;89.1;100820;;;;
2022/09/03 03:36:09;;;;;;;0.6;0.6;;;;;;;16.8;89.1;100820;;;;
2022/09/03 03:37:00;;;;;;;0.6;0.6;;;;;;;16.8;89.5;100820;;;;
2022/09/03 03:38:00;;;;;;;0.6;0.6;;;;;;;16.8;89.5;100820;;;;
2022/09/03 03:39:01;;;;;;;0.6;0.6;;;;;;;16.7;89.9;100820;;;;
2022/09/03 03:40:00;;;;;;;0.6;0.6;;;;;;;16.7;89.9;100820;;;;
2022/09/03 03:41:05;;;;;;;0.6;0.6;;;;;;;16.8;88.2;100820;;;;
2022/09/03 03:42:00;;;;;;;0.6;0.6;;;;;;;16.8;88.2;100820;;;;
2022/09/03 03:43:00;;;;;;;0.6;0.6;;;;;;;16.8;89.3;100810;;;;
2022/09/03 03:44:01;;;;;;;0.6;0.6;;;;;;;16.8;89.3;100810;;;;
2022/09/03 03:45:01;;;;;;;0.6;0.6;;;;;;;16.8;88.4;100820;;;;
2022/09/03 03:46:00;;;;;;;0.6;0.6;;;;;;;16.8;88.4;100820;;;;
2022/09/03 03:47:01;;;;;;;0.6;0.6;;;;;;;16.8;89.8;100820;;;;
2022/09/03 03:48:00;;;;;;;0.6;0.6;;;;;;;16.8;89.8;100820;;;;
2022/09/03 03:49:00;;;;;;;0.6;0.6;;;;;;;16.8;88.9;100810;;;;
2022/09/03 03:50:00;;;;;;;0.6;0.6;;;;;;;16.8;88.9;100810;;;;
2022/09/03 03:51:03;;;;;;;0.6;0.6;;;;;;;16.9;89.3;100820;;;;
2022/09/03 03:52:01;;;;;;;0.6;0.6;;;;;;;16.9;89.3;100820;;;;
2022/09/03 03:53:00;;;;;;;0.5;0.5;;;;;;;16.9;86.4;100820;;;;
2022/09/03 03:54:05;;;;;;;0.5;0.5;;;;;;;16.9;86.4;100820;;;;
2022/09/03 03:55:00;;;;;;;0.5;0.5;;;;;;;16.9;87.2;100820;;;;
2022/09/03 03:56:01;;;;;;;0.5;0.5;;;;;;;16.9;87.2;100820;;;;
2022/09/03 03:57:00;;;;;;;0.5;0.5;;;;;;;16.9;87.7;100820;;;;
2022/09/03 03:58:00;;;;;;;0.5;0.5;;;;;;;16.9;87.7;100820;;;;
2022/09/03 03:59:00;;;;;;;0.5;0.5;;;;;;;16.9;88.5;100820;;;;
2022/09/03 04:00:00;;;;;;;0.5;0.5;;;;;;;16.9;88.5;100820;;;;
2022/09/03 04:01:04;;;;;;;0.5;0.5;;;;;;;16.7;90.0;100810;;;;
2022/09/03 04:02:00;;;;;;;0.5;0.5;;;;;;;16.7;90.0;100810;;;;
2022/09/03 04:03:00;;;;;;;0.5;0.5;;;;;;;16.8;90.6;100820;;;;
2022/09/03 04:04:00;;;;;;;0.5;0.5;;;;;;;16.8;90.6;100820;;;;
2022/09/03 04:05:00;;;;;;;0.5;0.5;;;;;;;16.7;89.7;100820;;;;
2022/09/03 04:06:01;;;;;;;0.5;0.5;;;;;;;16.7;89.7;100820;;;;
2022/09/03 04:07:00;;;;;;;0.5;0.5;;;;;;;16.5;91.9;100820;;;;
2022/09/03 04:08:01;;;;;;;0.5;0.5;;;;;;;16.5;91.9;100820;;;;
2022/09/03 04:09:00;;;;;;;0.5;0.5;;;;;;;16.6;90.8;100810;;;;
2022/09/03 04:10:00;;;;;;;0.5;0.5;;;;;;;16.6;90.8;100810;;;;
2022/09/03 04:11:01;;;;;;;0.5;0.5;;;;;;;16.5;92.4;100820;;;;
2022/09/03 04:12:00;;;;;;;0.5;0.5;;;;;;;16.5;92.4;100820;;;;
2022/09/03 04:13:00;;;;;;;0.6;0.6;;;;;;;16.6;89.6;100820;;;;
2022/09/03 04:14:01;;;;;;;0.6;0.6;;;;;;;16.6;89.6;100820;;;;
2022/09/03 04:15:00;;;;;;;0.6;0.6;;;;;;;16.5;91.3;100820;;;;
2022/09/03 04:16:02;;;;;;;0.6;0.6;;;;;;;16.5;91.3;100820;;;;
2022/09/03 04:17:01;;;;;;;0.6;0.6;;;;;;;16.6;91.6;100820;;;;
2022/09/03 04:18:00;;;;;;;0.6;0.6;;;;;;;16.6;91.6;100820;;;;
2022/09/03 04:19:00;;;;;;;0.6;0.6;;;;;;;16.6;92.2;100820;;;;
2022/09/03 04:20:00;;;;;;;0.6;0.6;;;;;;;16.6;92.2;100820;;;;
2022/09/03 04:21:03;;;;;;;0.6;0.6;;;;;;;16.6;91.8;100820;;;;
2022/09/03 04:22:00;;;;;;;0.6;0.6;;;;;;;16.6;91.8;100820;;;;
2022/09/03 04:23:00;;;;;;;0.6;0.6;;;;;;;16.5;92.2;100820;;;;
2022/09/03 04:24:00;;;;;;;0.6;0.6;;;;;;;16.5;92.2;100820;;;;
2022/09/03 04:25:00;;;;;;;0.6;0.6;;;;;;;16.6;90.1;100810;;;;
2022/09/03 04:26:00;;;;;;;0.6;0.6;;;;;;;16.6;90.1;100810;;;;
2022/09/03 04:27:00;;;;;;;0.6;0.6;;;;;;;16.6;89.7;100810;;;;
2022/09/03 04:28:02;;;;;;;0.6;0.6;;;;;;;16.6;89.7;100810;;;;
2022/09/03 04:29:02;;;;;;;0.6;0.6;;;;;;;16.6;90.8;100810;;;;
2022/09/03 04:30:02;;;;;;;0.6;0.6;;;;;;;16.6;90.8;100810;;;;
2022/09/03 04:31:01;;;;;;;0.6;0.6;;;;;;;16.6;91.5;100810;;;;
2022/09/03 04:33:00;;;;;;;0.4;0.4;;;;;;;16.5;91.0;100810;;;;
2022/09/03 04:34:00;;;;;;;0.4;0.4;;;;;;;16.5;91.0;100810;;;;
2022/09/03 04:35:00;;;;;;;0.4;0.4;;;;;;;16.7;88.7;100800;;;;
2022/09/03 04:36:01;;;;;;;0.4;0.4;;;;;;;16.7;88.7;100800;;;;
2022/09/03 04:37:00;;;;;;;0.4;0.4;;;;;;;16.6;91.0;100810;;;;
2022/09/03 04:38:03;;;;;;;0.4;0.4;;;;;;;16.6;91.0;100810;;;;
2022/09/03 04:39:01;;;;;;;0.4;0.4;;;;;;;16.5;92.6;100800;;;;
2022/09/03 04:40:00;;;;;;;0.4;0.4;;;;;;;16.5;92.6;100800;;;;
2022/09/03 04:41:00;;;;;;;0.4;0.4;;;;;;;16.5;92.8;100800;;;;
2022/09/03 04:42:00;;;;;;;0.4;0.4;;;;;;;16.5;92.8;100800;;;;
2022/09/03 04:43:00;;;;;;;0.4;0.4;;;;;;;16.6;91.5;100800;;;;
2022/09/03 04:44:00;;;;;;;0.4;0.4;;;;;;;16.6;91.5;100800;;;;
2022/09/03 04:45:00;;;;;;;0.4;0.4;;;;;;;16.4;94.2;100800;;;;
2022/09/03 04:46:01;;;;;;;0.4;0.4;;;;;;;16.4;94.2;100800;;;;
2022/09/03 04:47:00;;;;;;;0.4;0.4;;;;;;;16.5;92.6;100800;;;;
2022/09/03 04:48:01;;;;;;;0.4;0.4;;;;;;;16.5;92.6;100800;;;;
2022/09/03 04:49:00;;;;;;;0.4;0.4;;;;;;;16.5;91.6;100800;;;;
2022/09/03 04:50:00;;;;;;;0.4;0.4;;;;;;;16.5;91.6;100800;;;;
2022/09/03 04:51:04;;;;;;;0.4;0.4;;;;;;;16.6;90.6;100800;;;;
2022/09/03 04:52:00;;;;;;;0.4;0.4;;;;;;;16.6;90.6;100800;;;;
2022/09/03 04:53:07;;;;;;;0.4;0.4;;;;;;;16.6;89.6;100800;;;;
2022/09/03 04:54:00;;;;;;;0.4;0.4;;;;;;;16.6;89.6;100800;;;;
2022/09/03 04:55:01;;;;;;;0.4;0.4;;;;;;;16.5;92.0;100800;;;;
2022/09/03 04:56:01;;;;;;;0.4;0.4;;;;;;;16.5;92.0;100800;;;;
2022/09/03 04:57:00;;;;;;;0.4;0.4;;;;;;;16.5;91.4;100810;;;;
2022/09/03 04:58:00;;;;;;;0.4;0.4;;;;;;;16.5;91.4;100810;;;;
2022/09/03 04:59:02;;;;;;;0.4;0.4;;;;;;;16.5;91.7;100800;;;;
2022/09/03 05:00:00;;;;;;;0.4;0.4;;;;;;;16.5;91.7;100800;;;;
2022/09/03 05:01:06;;;;;;;0.4;0.4;;;;;;;16.4;93.5;100800;;;;
2022/09/03 05:02:00;;;;;;;0.4;0.4;;;;;;;16.4;93.5;100800;;;;
2022/09/03 05:03:00;;;;;;;0.4;0.4;;;;;;;16.4;92.7;100810;;;;
2022/09/03 05:04:00;;;;;;;0.4;0.4;;;;;;;16.4;92.7;100810;;;;
2022/09/03 05:05:00;;;;;;;0.4;0.4;;;;;;;16.5;93.0;100810;;;;
2022/09/03 05:06:02;;;;;;;0.4;0.4;;;;;;;16.5;93.0;100810;;;;
2022/09/03 05:07:00;;;;;;;0.4;0.4;;;;;;;16.4;93.8;100810;;;;
2022/09/03 05:08:00;;;;;;;0.4;0.4;;;;;;;16.4;93.8;100810;;;;
2022/09/03 05:09:00;;;;;;;0.4;0.4;;;;;;;16.2;94.7;100810;;;;
2022/09/03 05:10:00;;;;;;;0.4;0.4;;;;;;;16.2;94.7;100810;;;;
2022/09/03 05:11:00;;;;;;;0.4;0.4;;;;;;;16.3;94.0;100810;;;;
2022/09/03 05:12:00;;;;;;;0.4;0.4;;;;;;;16.3;94.0;100810;;;;
2022/09/03 05:13:01;;;;;;;0.4;0.4;;;;;;;16.2;96.2;100810;;;;
2022/09/03 05:14:00;;;;;;;0.4;0.4;;;;;;;16.2;96.2;100810;;;;
2022/09/03 05:15:00;;;;;;;0.4;0.4;;;;;;;16.2;94.3;100810;;;;
2022/09/03 05:16:01;;;;;;;0.4;0.4;;;;;;;16.2;94.3;100810;;;;
2022/09/03 05:17:00;;;;;;;0.4;0.4;;;;;;;16.3;93.1;100810;;;;
2022/09/03 05:18:01;;;;;;;0.4;0.4;;;;;;;16.3;93.1;100810;;;;
2022/09/03 05:19:00;;;;;;;0.4;0.4;;;;;;;16.3;95.3;100810;;;;
2022/09/03 05:20:00;;;;;;;0.4;0.4;;;;;;;16.3;95.3;100810;;;;
2022/09/03 05:21:00;;;;;;;0.4;0.4;;;;;;;16.4;92.3;100810;;;;
2022/09/03 05:22:00;;;;;;;0.4;0.4;;;;;;;16.4;92.3;100810;;;;
2022/09/03 05:23:01;;;;;;;0.4;0.4;;;;;;;16.3;95.1;100810;;;;
2022/09/03 05:24:00;;;;;;;0.4;0.4;;;;;;;16.3;95.1;100810;;;;
2022/09/03 05:25:00;;;;;;;0.4;0.4;;;;;;;16.4;94.9;100810;;;;
2022/09/03 05:26:01;;;;;;;0.4;0.4;;;;;;;16.4;94.9;100810;;;;
2022/09/03 05:27:01;;;;;;;0.4;0.4;;;;;;;16.4;94.3;100810;;;;
2022/09/03 05:28:00;;;;;;;0.4;0.4;;;;;;;16.4;94.3;100810;;;;
2022/09/03 05:29:06;;;;;;;0.4;0.4;;;;;;;16.4;94.1;100820;;;;
2022/09/03 05:30:00;;;;;;;0.4;0.4;;;;;;;16.4;94.1;100820;;;;
2022/09/03 05:31:01;;;;;;;0.4;0.4;;;;;;;16.5;93.9;100820;;;;
2022/09/03 05:32:00;;;;;;;0.4;0.4;;;;;;;16.5;93.9;100820;;;;
2022/09/03 05:33:00;;;;;;;0.3;0.3;;;;;;;16.2;96.7;100810;;;;
2022/09/03 05:34:02;;;;;;;0.3;0.3;;;;;;;16.2;96.7;100810;;;;
2022/09/03 05:37:00;;;;;;;0.3;0.3;;;;;;;16.2;96.3;100810;;;;
2022/09/03 05:38:01;;;;;;;0.3;0.3;;;;;;;16.2;96.3;100810;;;;
2022/09/03 05:39:00;;;;;;;0.3;0.3;;;;;;;16.3;96.6;100810;;;;
2022/09/03 05:40:00;;;;;;;0.3;0.3;;;;;;;16.3;96.6;100810;;;;
2022/09/03 05:41:01;;;;;;;0.3;0.3;;;;;;;16.3;95.1;100810;;;;
2022/09/03 05:42:00;;;;;;;0.3;0.3;;;;;;;16.3;95.1;100810;;;;
2022/09/03 05:43:00;;;;;;;0.3;0.3;;;;;;;16.4;96.3;100810;;;;
2022/09/03 05:44:01;;;;;;;0.3;0.3;;;;;;;16.4;96.3;100810;;;;
2022/09/03 05:45:00;;;;;;;0.3;0.3;;;;;;;16.3;95.2;100810;;;;
2022/09/03 05:46:01;;;;;;;0.3;0.3;;;;;;;16.3;95.2;100810;;;;
2022/09/03 05:47:00;;;;;;;0.3;0.3;;;;;;;16.2;97.2;100810;;;;
2022/09/03 05:48:00;;;;;;;0.3;0.3;;;;;;;16.2;97.2;100810;;;;
2022/09/03 05:49:01;;;;;;;0.3;0.3;;;;;;;16.3;95.3;100810;;;;
2022/09/03 05:50:00;;;;;;;0.3;0.3;;;;;;;16.3;95.3;100810;;;;
2022/09/03 05:51:00;;;;;;;0.3;0.3;;;;;;;16.4;96.5;100810;;;;
2022/09/03 05:52:00;;;;;;;0.3;0.3;;;;;;;16.4;96.5;100810;;;;
2022/09/03 05:53:00;;;;;;;0.4;0.4;;;;;;;16.5;96.0;100810;;;;
2022/09/03 05:54:01;;;;;;;0.4;0.4;;;;;;;16.5;96.0;100810;;;;
2022/09/03 05:55:00;;;;;;;0.4;0.4;;;;;;;16.5;95.3;100810;;;;
2022/09/03 05:56:01;;;;;;;0.4;0.4;;;;;;;16.5;95.3;100810;;;;
2022/09/03 05:57:00;;;;;;;0.4;0.4;;;;;;;16.5;96.2;100810;;;;
2022/09/03 05:58:00;;;;;;;0.4;0.4;;;;;;;16.5;96.2;100810;;;;
2022/09/03 05:59:01;;;;;;;0.4;0.4;;;;;;;16.5;96.5;100810;;;;
2022/09/03 06:00:00;;;;;;;0.4;0.4;;;;;;;16.5;96.5;100810;;;;
2022/09/03 06:01:08;;;;;;;0.4;0.4;;;;;;;16.6;95.9;100810;;;;
2022/09/03 06:02:00;;;;;;;0.4;0.4;;;;;;;16.6;95.9;100810;;;;
2022/09/03 06:03:00;;;;;;;0.4;0.4;;;;;;;16.6;96.4;100810;;;;
2022/09/03 06:04:01;;;;;;;0.4;0.4;;;;;;;16.6;96.4;100810;;;;
2022/09/03 06:05:00;;;;;;;0.4;0.4;;;;;;;16.6;96.0;100810;;;;
2022/09/03 06:06:00;;;;;;;0.4;0.4;;;;;;;16.6;96.0;100810;;;;
2022/09/03 06:07:00;;;;;;;0.4;0.4;;;;;;;16.8;95.2;100810;;;;
2022/09/03 06:08:00;;;;;;;0.4;0.4;;;;;;;16.8;95.2;100810;;;;
2022/09/03 06:09:01;;;;;;;0.4;0.4;;;;;;;16.7;95.2;100810;;;;
2022/09/03 06:10:00;;;;;;;0.4;0.4;;;;;;;16.7;95.2;100810;;;;
2022/09/03 06:11:03;;;;;;;0.4;0.4;;;;;;;16.8;95.9;100810;;;;
2022/09/03 06:12:04;;;;;;;0.4;0.4;;;;;;;16.8;95.9;100810;;;;
2022/09/03 06:13:02;;;;;;;0.3;0.3;;;;;;;16.9;94.1;100810;;;;
2022/09/03 06:14:00;;;;;;;0.3;0.3;;;;;;;16.9;94.1;100810;;;;
2022/09/03 06:15:00;;;;;;;0.3;0.3;;;;;;;17.0;92.9;100820;;;;
2022/09/03 06:16:01;;;;;;;0.3;0.3;;;;;;;17.0;92.9;100820;;;;
2022/09/03 06:17:00;;;;;;;0.3;0.3;;;;;;;17.1;93.4;100820;;;;
2022/09/03 06:18:00;;;;;;;0.3;0.3;;;;;;;17.1;93.4;100820;;;;
2022/09/03 06:19:00;;;;;;;0.3;0.3;;;;;;;17.2;93.7;100810;;;;
2022/09/03 06:20:00;;;;;;;0.3;0.3;;;;;;;17.2;93.7;100810;;;;
2022/09/03 06:21:01;;;;;;;0.3;0.3;;;;;;;17.2;93.6;100820;;;;
2022/09/03 06:22:00;;;;;;;0.3;0.3;;;;;;;17.2;93.6;100820;;;;
2022/09/03 06:23:00;;;;;;;0.3;0.3;;;;;;;17.1;93.9;100820;;;;
2022/09/03 06:24:00;;;;;;;0.3;0.3;;;;;;;17.1;93.9;100820;;;;
2022/09/03 06:25:00;;;;;;;0.3;0.3;;;;;;;17.1;94.1;100820;;;;
2022/09/03 06:26:05;;;;;;;0.3;0.3;;;;;;;17.1;94.1;100820;;;;
2022/09/03 06:27:00;;;;;;;0.3;0.3;;;;;;;17.2;93.6;100820;;;;
2022/09/03 06:28:01;;;;;;;0.3;0.3;;;;;;;17.2;93.6;100820;;;;
2022/09/03 06:29:00;;;;;;;0.3;0.3;;;;;;;17.2;93.6;100820;;;;
2022/09/03 06:30:00;;;;;;;0.3;0.3;;;;;;;17.2;93.6;100820;;;;
2022/09/03 06:31:01;;;;;;;0.3;0.3;;;;;;;17.0;95.4;100820;;;;
2022/09/03 06:32:02;;;;;;;0.3;0.3;;;;;;;17.0;95.4;100820;;;;
2022/09/03 06:33:00;;;;;;;0.3;0.3;;;;;;;17.2;94.7;100820;;;;